Flight Track Log - Related Links

Times and Time Zones

All times are in EDT time to prevent confusion due to time zone crossing. See the CTL13 flight status page for this flight to view local times or setup timezone preferences in your user account.

Time Position Orientation Groundspeed Altitude Reporting Facility
EDT Latitude Longitude Course Direction KTS MPH feet Rate Location/Type
Fri 06:32:39 PM 41.5144 -81.7089 338° Northwest 122 140 1,200  Level Cleveland Center
Fri 06:32:58 PM 41.5250 -81.7147 338° Northwest 131 151 1,500 608 Climbing Cleveland Center
Fri 06:33:58 PM 41.5664 -81.7294 345° North 170 196 2,000 248 Climbing Cleveland Center
Fri 06:34:59 PM 41.5806 -81.7822 290° West 164 189 2,000 492 Level Cleveland Center
Fri 06:36:00 PM 41.5842 -81.8350 275° West 129 148 3,000 1,082 Climbing Cleveland Center
Fri 06:37:01 PM 41.5858 -81.8797 273° West 110 127 4,200 931 Climbing Cleveland Center
Fri 06:37:56 PM 41.5853 -81.9156 269° West 115 132 4,800 672 Climbing Cleveland Center
Fri 06:38:57 PM 41.5661 -81.9569 238° Southwest 120 138 5,500 893 Climbing Cleveland Center
Fri 06:39:57 PM 41.5531 -81.9956 246° West 114 131 6,600 1,041 Climbing Cleveland Center
Fri 06:40:58 PM 41.5381 -82.0283 239° Southwest 89 102 7,600 885 Climbing Cleveland Center
Fri 06:41:59 PM 41.5272 -82.0558 242° Southwest 94 108 8,400 541 Climbing Cleveland Center
Fri 06:43:00 PM 41.5122 -82.0944 243° Southwest 119 137 8,700 446 Climbing Cleveland Center
Fri 06:44:00 PM 41.4992 -82.1331 246° West 116 133 9,300 522 Climbing Cleveland Center
Fri 06:44:55 PM 41.4819 -82.1686 237° Southwest 119 137 9,700 326 Climbing Cleveland Center
Fri 06:46:09 PM 41.4647 -82.2153 244° Southwest 118 136 10,000 135 Climbing Cleveland Center
Fri 06:47:08 PM 41.4475 -82.2592 242° Southwest 124 143 10,000  Level Cleveland Center
Fri 06:48:09 PM 41.4300 -82.3031 242° Southwest 135 155 10,000  Level Cleveland Center
Fri 06:49:09 PM 41.4128 -82.3467 242° Southwest 135 155 10,000  Level Cleveland Center
Fri 06:50:08 PM 41.3953 -82.3878 240° Southwest 135 155 10,000  Level Cleveland Center
Fri 06:51:08 PM 41.3800 -82.4317 245° Southwest 135 155 10,000  Level Cleveland Center
Fri 06:52:08 PM 41.3628 -82.4756 242° Southwest 135 155 10,000  Level Cleveland Center
Fri 06:53:08 PM 41.3475 -82.5164 244° Southwest 135 155 10,000 50 Level Cleveland Center
Fri 06:54:09 PM 41.3300 -82.5575 240° Southwest 135 155 10,100  Climbing Cleveland Center
Fri 06:55:08 PM 41.3128 -82.5983 241° Southwest 135 155 10,000 -50 Descending Cleveland Center
Fri 06:56:08 PM 41.2950 -82.6447 243° Southwest 135 155 10,000  Level Cleveland Center
Fri 06:57:09 PM 41.2778 -82.6858 241° Southwest 135 155 10,000  Level Cleveland Center
Fri 06:58:09 PM 41.2581 -82.7294 239° Southwest 135 155 10,000  Level Cleveland Center
Fri 06:59:09 PM 41.2406 -82.7731 242° Southwest 135 155 10,000  Level Cleveland Center
Fri 07:00:08 PM 41.2208 -82.8219 242° Southwest 135 155 10,000  Level Cleveland Center
Fri 07:01:08 PM 41.2033 -82.8656 242° Southwest 135 155 10,000  Level Cleveland Center
Fri 07:02:08 PM 41.1858 -82.9092 242° Southwest 135 155 10,000  Level Cleveland Center
Fri 07:03:08 PM 41.1683 -82.9497 240° Southwest 135 155 10,000  Level Cleveland Center
Fri 07:04:09 PM 41.1486 -82.9933 239° Southwest 135 155 10,000  Level Cleveland Center
Fri 07:05:08 PM 41.1311 -83.0339 240° Southwest 135 155 10,000  Level Cleveland Center
Fri 07:06:08 PM 41.1133 -83.0775 242° Southwest 135 155 10,000  Level Cleveland Center
Fri 07:07:08 PM 41.0981 -83.1181 243° Southwest 135 155 10,000  Level Cleveland Center
Fri 07:08:08 PM 41.0803 -83.1617 242° Southwest 135 155 10,000  Level Cleveland Center
Fri 07:09:09 PM 41.0628 -83.2022 240° Southwest 135 155 10,000  Level Cleveland Center
Fri 07:10:08 PM 41.0450 -83.2428 240° Southwest 135 155 10,000  Level Cleveland Center
Fri 07:11:08 PM 41.0275 -83.2833 240° Southwest 130 150 10,000  Level Cleveland Center
Fri 07:12:09 PM 41.0097 -83.3239 240° Southwest 137 158 10,000  Level Cleveland Center
Fri 07:13:08 PM 40.9900 -83.3669 239° Southwest 137 158 10,000  Level Cleveland Center
Fri 07:15:36 PM 40.9447 -83.4678 239° Southwest 131 151 10,000  Level Indianapolis Center
Fri 07:16:38 PM 40.9258 -83.5094 239° Southwest 131 151 10,000  Level Indianapolis Center
Fri 07:17:40 PM 40.9089 -83.5481 240° Southwest 130 150 10,000  Level Indianapolis Center
Fri 07:18:41 PM 40.8839 -83.5950 235° Southwest 132 152 10,000  Level Indianapolis Center
Fri 07:19:43 PM 40.8656 -83.6367 240° Southwest 130 150 10,000  Level Indianapolis Center
Fri 07:20:45 PM 40.8467 -83.6781 239° Southwest 130 150 10,000  Level Indianapolis Center
Fri 07:21:47 PM 40.8289 -83.7203 241° Southwest 130 150 10,000  Level Indianapolis Center
Fri 07:22:49 PM 40.8075 -83.7597 234° Southwest 130 150 10,000  Level Indianapolis Center
Fri 07:23:50 PM 40.7897 -83.8006 240° Southwest 128 147 10,000  Level Indianapolis Center
Fri 07:24:52 PM 40.7697 -83.8408 237° Southwest 129 148 10,000  Level Indianapolis Center
Fri 07:25:54 PM 40.7497 -83.8808 237° Southwest 130 150 10,000  Level Indianapolis Center
Fri 07:26:56 PM 40.7278 -83.9275 238° Southwest 130 150 10,000  Level Indianapolis Center
Fri 07:27:58 PM 40.7078 -83.9675 237° Southwest 130 150 10,000  Level Indianapolis Center
Fri 07:29:00 PM 40.6928 -84.0114 246° West 130 150 10,000  Level Indianapolis Center
Fri 07:29:18 PM 40.6867 -84.0258 241° Southwest 130 150 10,000  Level Indianapolis Center
Fri 07:30:01 PM 40.6767 -84.0536 245° Southwest 129 148 10,000  Level Indianapolis Center
Fri 07:30:25 PM 40.6681 -84.0758 243° Southwest 133 153 10,000  Level Indianapolis Center
Fri 07:31:03 PM 40.6603 -84.0983 246° West 132 152 10,000  Level Indianapolis Center
Fri 07:31:25 PM 40.6522 -84.1203 244° Southwest 132 152 10,000  Level Indianapolis Center
Fri 07:32:05 PM 40.6436 -84.1425 243° Southwest 134 154 10,000  Level Indianapolis Center
Fri 07:32:20 PM 40.6386 -84.1597 249° West 135 155 10,000 -97 Level Indianapolis Center
Fri 07:33:07 PM 40.6275 -84.1869 242° Southwest 134 154 9,900 -56 Descending Indianapolis Center
Fri 07:34:08 PM 40.6111 -84.2319 244° Southwest 134 154 9,900  Level Indianapolis Center
Fri 07:34:27 PM 40.6042 -84.2514 245° Southwest 135 155 9,900  Level Indianapolis Center
Fri 07:35:10 PM 40.5917 -84.2831 243° Southwest 134 154 9,900  Level Indianapolis Center
Fri 07:35:34 PM 40.5853 -84.3039 248° West 135 155 9,900  Level Indianapolis Center
Fri 07:36:12 PM 40.5758 -84.3278 243° Southwest 134 154 9,900  Level Indianapolis Center
Fri 07:36:35 PM 40.5694 -84.3458 245° Southwest 131 151 9,900 97 Level Indianapolis Center
Fri 07:37:14 PM 40.5589 -84.3719 242° Southwest 134 154 10,000 100 Climbing Indianapolis Center
Fri 07:37:35 PM 40.5517 -84.3872 238° Southwest 132 152 10,000 -98 Level Indianapolis Center
Fri 07:38:15 PM 40.5419 -84.4144 245° Southwest 133 153 9,900 -59 Descending Indianapolis Center
Fri 07:39:17 PM 40.5231 -84.4586 241° Southwest 134 154 9,900 73 Level Indianapolis Center
Fri 07:39:37 PM 40.5172 -84.4758 246° West 136 157 10,000 97 Climbing Indianapolis Center
Fri 07:40:19 PM 40.5069 -84.5047 245° Southwest 136 157 10,000  Level Indianapolis Center
Fri 07:41:21 PM 40.4911 -84.5481 244° Southwest 134 154 10,000  Level Indianapolis Center
Fri 07:42:23 PM 40.4742 -84.5922 243° Southwest 134 154 10,000 -49 Level Indianapolis Center
Fri 07:43:24 PM 40.4578 -84.6369 244° Southwest 134 154 9,900 -79 Descending Indianapolis Center
Fri 07:43:39 PM 40.4503 -84.6561 243° Southwest 135 155 9,900  Level Indianapolis Center
Fri 07:44:26 PM 40.4381 -84.6889 244° Southwest 135 155 9,900 55 Level Indianapolis Center
Fri 07:45:28 PM 40.4242 -84.7347 248° West 135 155 10,000  Climbing Indianapolis Center
Fri 07:46:30 PM 40.4089 -84.7797 246° West 134 154 9,900 -49 Descending Indianapolis Center
Fri 07:47:31 PM 40.3925 -84.8236 244° Southwest 133 153 9,900  Level Indianapolis Center
Fri 07:47:54 PM 40.3842 -84.8442 242° Southwest 135 155 9,900  Level Indianapolis Center
Fri 07:48:33 PM 40.3739 -84.8681 241° Southwest 134 154 9,900  Level Indianapolis Center
Fri 07:48:49 PM 40.3664 -84.8828 236° Southwest 136 157 9,900 97 Level Indianapolis Center
Fri 07:49:35 PM 40.3544 -84.9122 242° Southwest 136 157 10,000  Climbing Indianapolis Center
Fri 07:50:36 PM 40.3325 -84.9525 234° Southwest 135 155 9,900  Descending Indianapolis Center
Fri 07:50:56 PM 40.3233 -84.9697 235° Southwest 138 159 10,000 97 Climbing Indianapolis Center
Fri 07:51:38 PM 40.3139 -84.9978 246° West 138 159 10,000 -55 Level Indianapolis Center
Fri 07:52:45 PM 40.2953 -85.0533 246° West 134 154 9,900 -45 Descending Indianapolis Center
Fri 07:53:52 PM 40.2781 -85.1056 247° West 134 154 9,900  Level Indianapolis Center
Fri 07:54:53 PM 40.2617 -85.1497 244° Southwest 135 155 9,900 53 Level Indianapolis Center
Fri 07:55:45 PM 40.2483 -85.1847 243° Southwest 135 155 10,000  Climbing Indianapolis Center
Fri 07:56:47 PM 40.2317 -85.2275 243° Southwest 133 153 9,900 -145 Descending Indianapolis Center
Fri 07:57:49 PM 40.2136 -85.2728 242° Southwest 135 155 9,700 -390 Descending Indianapolis Center
Fri 07:58:50 PM 40.1967 -85.3217 246° West 140 161 9,100 -683 Descending Indianapolis Center
Fri 07:59:52 PM 40.1778 -85.3753 245° Southwest 150 173 8,300 -774 Descending Indianapolis Center
Fri 08:00:54 PM 40.1544 -85.4292 240° Southwest 159 183 7,500 -488 Descending Indianapolis Center
Fri 08:01:55 PM 40.1306 -85.4844 241° Southwest 163 188 7,300 -591 Descending Indianapolis Center
Fri 08:04:17 PM 40.1000 -85.6167 253° West 147 169 5,500 -743 Descending Indianapolis TRACON
Fri 08:05:17 PM 40.0833 -85.6667 246° West 153 176 4,800 -684 Descending Indianapolis TRACON
Fri 08:06:11 PM 40.0833 -85.7167 270° West 159 183 4,200 -474 Descending Indianapolis TRACON
Fri 08:07:11 PM 40.0667 -85.7667 246° West 154 177 3,900 -100 Descending Indianapolis TRACON
Fri 08:08:11 PM 40.0500 -85.8167 246° West 140 161 4,000 50 Climbing Indianapolis TRACON
Fri 08:09:11 PM 40.0500 -85.8667 270° West 137 158 4,000  Level Indianapolis TRACON
Fri 08:10:05 PM 40.0333 -85.9000 237° Southwest 136 157 4,000 -45 Level Indianapolis TRACON
Fri 08:11:24 PM 40.0333 -85.9667 270° West 135 155 3,900 -372 Descending Indianapolis TRACON
Fri 08:12:30 PM 40.0000 -86.0167 229° Southwest 155 178 3,100 -727 Descending Indianapolis TRACON

Login

Don't have an account? Register now (free) for customized features, flight alerts, and more!